createdAt,value
2023-02-19T00:00:20.892Z,5.70
2023-02-19T00:05:43.635Z,5.60
2023-02-19T00:10:46.360Z,4.70
2023-02-19T00:15:49.164Z,4.20
2023-02-19T00:20:52.019Z,4.40
2023-02-19T00:25:55.430Z,3.50
2023-02-19T00:31:10.310Z,3.40
2023-02-19T00:36:13.949Z,3.10
2023-02-19T00:41:21.482Z,3.50
2023-02-19T00:46:30.390Z,3.50
2023-02-19T00:51:36.346Z,3.60
2023-02-19T00:56:39.125Z,4.10
2023-02-19T01:01:44.468Z,3.90
2023-02-19T01:06:48.892Z,4.30
2023-02-19T01:11:51.694Z,4.10
2023-02-19T01:16:54.430Z,3.90
2023-02-19T01:21:57.213Z,3.20
2023-02-19T01:26:59.932Z,3.00
2023-02-19T01:32:03.013Z,3.00
2023-02-19T01:37:08.141Z,3.70
2023-02-19T01:42:15.402Z,3.30
2023-02-19T01:47:18.293Z,3.20
2023-02-19T01:52:31.800Z,2.90
2023-02-19T01:57:37.715Z,3.40
2023-02-19T02:02:42.688Z,3.40
2023-02-19T02:08:04.234Z,3.30
2023-02-19T02:13:07.099Z,3.30
2023-02-19T02:18:40.191Z,3.70
2023-02-19T02:24:11.194Z,3.30
2023-02-19T02:29:23.897Z,3.80
2023-02-19T02:34:48.277Z,3.80
2023-02-19T02:39:50.995Z,5.20
2023-02-19T02:45:13.980Z,4.60
2023-02-19T02:50:26.056Z,4.40
2023-02-19T02:55:30.711Z,4.60
2023-02-19T03:00:52.868Z,3.40
2023-02-19T03:06:00.201Z,3.70
2023-02-19T03:11:25.139Z,3.30
2023-02-19T03:16:47.978Z,3.40
2023-02-19T03:22:03.270Z,3.10
2023-02-19T03:27:06.074Z,2.60
2023-02-19T03:32:14.689Z,2.80
2023-02-19T03:42:42.660Z,2.90
2023-02-19T03:48:02.926Z,2.30
2023-02-19T03:53:31.567Z,2.50
2023-02-19T03:58:45.061Z,2.20
2023-02-19T04:04:14.243Z,3.10
2023-02-19T04:09:17.104Z,2.10
2023-02-19T04:14:25.237Z,2.00
2023-02-19T04:19:29.408Z,2.60
2023-02-19T04:24:44.901Z,2.20
2023-02-19T04:29:48.045Z,1.80
2023-02-19T04:34:54.240Z,2.20
2023-02-19T04:39:57.307Z,2.20
2023-02-19T04:45:00.141Z,2.20
2023-02-19T04:50:03.284Z,2.00
2023-02-19T04:55:07.236Z,2.10
2023-02-19T05:00:12.779Z,2.20
2023-02-19T05:05:15.698Z,2.10
2023-02-19T05:10:18.587Z,2.60
2023-02-19T05:15:21.412Z,2.80
2023-02-19T05:20:24.215Z,2.50
2023-02-19T05:25:27.111Z,2.70
2023-02-19T05:30:29.930Z,2.90
2023-02-19T05:35:32.781Z,3.20
2023-02-19T05:40:36.616Z,3.10
2023-02-19T05:45:40.198Z,3.20
2023-02-19T05:50:42.978Z,3.40
2023-02-19T05:55:45.804Z,3.90
2023-02-19T06:00:48.739Z,3.80
2023-02-19T06:05:52.794Z,3.30
2023-02-19T06:10:55.530Z,3.60
2023-02-19T06:15:58.362Z,4.10
2023-02-19T06:21:05.651Z,4.40
2023-02-19T06:26:19.644Z,4.60
2023-02-19T06:31:22.839Z,3.60
2023-02-19T06:36:25.674Z,4.50
2023-02-19T06:41:28.398Z,4.10
2023-02-19T06:46:31.213Z,4.40
2023-02-19T06:51:34.602Z,4.90
2023-02-19T06:56:39.707Z,4.90
2023-02-19T07:01:42.771Z,4.90
2023-02-19T07:06:45.587Z,4.10
2023-02-19T07:11:48.501Z,4.30
2023-02-19T07:16:51.295Z,4.40
2023-02-19T07:21:54.047Z,4.50
2023-02-19T07:26:56.950Z,5.10
2023-02-19T07:31:59.799Z,4.40
2023-02-19T07:37:02.571Z,4.90
2023-02-19T07:42:05.513Z,4.50
2023-02-19T07:47:08.351Z,4.30
2023-02-19T07:52:11.178Z,4.10
2023-02-19T07:57:14.639Z,4.00
2023-02-19T08:02:37.679Z,4.60
2023-02-19T08:07:40.608Z,5.90
2023-02-19T08:13:02.399Z,4.30
2023-02-19T08:18:11.459Z,4.20
2023-02-19T08:23:14.411Z,5.00
2023-02-19T08:28:17.289Z,4.80
2023-02-19T08:33:21.367Z,4.60
2023-02-19T08:38:24.163Z,4.80
2023-02-19T08:43:27.056Z,4.70
2023-02-19T08:48:29.987Z,4.70
2023-02-19T08:53:32.928Z,4.60
2023-02-19T08:58:36.306Z,4.20
2023-02-19T09:03:39.602Z,4.40
2023-02-19T09:08:42.507Z,4.40
2023-02-19T09:13:45.449Z,3.70
2023-02-19T09:37:46.260Z,4.00
2023-02-19T09:44:31.226Z,3.90
2023-02-19T09:51:19.327Z,4.20
2023-02-19T10:11:57.299Z,4.30
2023-02-19T10:17:06.830Z,3.70
2023-02-19T10:29:54.231Z,3.90
2023-02-19T10:53:55.395Z,3.20
2023-02-19T11:00:19.111Z,2.50
2023-02-19T11:05:35.223Z,4.00
2023-02-19T11:12:16.400Z,3.00
2023-02-19T11:17:27.819Z,2.70
2023-02-19T11:22:46.982Z,2.90
2023-02-19T11:28:06.937Z,3.10
2023-02-19T11:33:16.200Z,2.70
2023-02-19T11:44:46.573Z,2.60
2023-02-19T11:57:16.254Z,2.40
2023-02-19T12:02:27.484Z,2.30
2023-02-19T12:08:37.586Z,2.60
2023-02-19T12:21:21.176Z,3.10
2023-02-19T12:26:42.890Z,2.40
2023-02-19T12:38:45.308Z,2.60
2023-02-19T12:51:22.184Z,1.90
2023-02-19T13:03:34.866Z,1.80
2023-02-19T13:09:06.494Z,2.60
2023-02-19T13:21:21.492Z,2.10
2023-02-19T13:26:46.296Z,2.20
2023-02-19T13:32:21.090Z,2.40
2023-02-19T13:44:08.252Z,1.90
2023-02-19T14:16:01.679Z,2.10
2023-02-19T14:28:48.258Z,1.80
2023-02-19T14:41:48.462Z,1.90
2023-02-19T14:53:22.467Z,1.70
2023-02-19T14:58:47.710Z,1.60
2023-02-19T15:04:27.625Z,1.50
2023-02-19T15:09:40.013Z,1.90
2023-02-19T15:29:04.495Z,1.50
2023-02-19T15:59:46.530Z,1.60
2023-02-19T16:12:44.903Z,1.80
2023-02-19T16:18:21.722Z,1.60
2023-02-19T16:29:32.608Z,2.00
2023-02-19T16:36:21.653Z,2.00
2023-02-19T16:50:20.758Z,2.20
2023-02-19T17:12:19.632Z,2.70
2023-02-19T17:19:08.675Z,2.00
2023-02-19T17:24:19.375Z,2.20
2023-02-19T17:29:22.744Z,2.20
2023-02-19T17:34:25.610Z,2.00
2023-02-19T17:39:28.398Z,2.00
2023-02-19T17:46:23.710Z,1.80
2023-02-19T17:51:43.770Z,2.20
2023-02-19T17:56:55.061Z,1.70
2023-02-19T18:01:57.835Z,2.10
2023-02-19T18:07:01.009Z,2.00
2023-02-19T18:12:04.922Z,1.80
2023-02-19T18:17:07.756Z,2.00
2023-02-19T18:22:56.785Z,2.20
2023-02-19T18:28:39.739Z,2.50
2023-02-19T18:46:27.808Z,2.60
2023-02-19T18:51:46.956Z,2.60
2023-02-19T18:56:53.153Z,3.40
2023-02-19T19:08:01.808Z,3.80
2023-02-19T19:13:04.853Z,2.80
2023-02-19T19:18:12.070Z,2.80
2023-02-19T19:24:20.236Z,2.90
2023-02-19T20:06:21.860Z,3.10
2023-02-19T20:11:24.691Z,3.20
2023-02-19T20:17:33.210Z,2.50
2023-02-19T20:52:53.595Z,2.40
2023-02-19T20:59:02.145Z,2.00
2023-02-19T21:10:16.064Z,2.20
2023-02-19T21:15:20.177Z,2.40
2023-02-19T21:20:29.040Z,2.50
2023-02-19T21:25:33.292Z,2.20
2023-02-19T21:30:36.404Z,2.60
2023-02-19T21:35:40.291Z,2.90
2023-02-19T22:11:27.603Z,2.40
2023-02-19T22:16:31.350Z,2.40
2023-02-19T22:29:16.391Z,2.50
2023-02-19T22:34:59.680Z,2.40
2023-02-19T22:52:52.073Z,3.10
2023-02-19T23:17:14.059Z,3.10
2023-02-19T23:37:47.079Z,3.00
2023-02-19T23:42:54.579Z,3.50
